Time;durP1;ratioP1;P1;durP2;ratioP2;P2;SDS_P1;SDS_P2;PMS_P1;PMS_P2;Temp;Humidity;BMP_temperature;BMP_pressure;BME280_temperature;BME280_humidity;BME280_pressure;Samples;Min_cycle;Max_cycle;Signal;HPM_P1;HPM_P2
2022/12/21 00:01:11;;;;;;;61.30;19.63;;;;;;;;;;4952670;28;20026;-80
2022/12/21 00:03:36;;;;;;;52.87;19.47;;;;;;;;;;4951958;29;20024;-82
2022/12/21 00:06:04;;;;;;;52.77;18.50;;;;;;;;;;4958353;28;20050;-81
2022/12/21 00:08:34;;;;;;;55.10;20.43;;;;;;;;;;4959098;28;20043;-81
2022/12/21 00:10:59;;;;;;;56.83;20.70;;;;;;;;;;4967639;28;20447;-82
2022/12/21 00:13:26;;;;;;;52.57;19.93;;;;;;;;;;4968784;28;20027;-82
2022/12/21 00:15:58;;;;;;;54.47;19.80;;;;;;;;;;4956738;29;20034;-82
2022/12/21 00:18:24;;;;;;;50.50;18.90;;;;;;;;;;4970970;28;20341;-82
2022/12/21 00:21:05;;;;;;;51.03;19.60;;;;;;;;;;4970751;28;20038;-81
2022/12/21 00:23:31;;;;;;;51.03;19.60;;;;;;;;;;4970418;28;20123;-82
2022/12/21 00:26:03;;;;;;;68.20;21.27;;;;;;;;;;4954536;29;20039;-81
2022/12/21 00:28:29;;;;;;;57.92;20.77;;;;;;;;;;4970366;28;20076;-82
2022/12/21 00:30:54;;;;;;;58.07;19.90;;;;;;;;;;4970716;28;20130;-81
2022/12/21 00:33:21;;;;;;;61.17;19.87;;;;;;;;;;4954146;29;20126;-80
2022/12/21 00:35:50;;;;;;;55.80;21.30;;;;;;;;;;4953822;29;20042;-81
2022/12/21 00:38:17;;;;;;;62.37;20.27;;;;;;;;;;4955866;28;20028;-80
2022/12/21 00:40:44;;;;;;;59.07;20.23;;;;;;;;;;4955849;28;20062;-80
2022/12/21 00:43:10;;;;;;;52.87;19.33;;;;;;;;;;4935046;29;20052;-81
2022/12/21 00:45:37;;;;;;;52.27;20.03;;;;;;;;;;4952633;29;20042;-81
2022/12/21 00:48:03;;;;;;;56.27;18.87;;;;;;;;;;4950860;29;20028;-77
2022/12/21 00:50:31;;;;;;;49.67;19.53;;;;;;;;;;4950473;29;20114;-77
2022/12/21 00:52:56;;;;;;;54.97;19.90;;;;;;;;;;4935513;29;20031;-79
2022/12/21 00:55:22;;;;;;;52.63;19.57;;;;;;;;;;4935696;29;20063;-78
2022/12/21 00:57:47;;;;;;;52.97;20.03;;;;;;;;;;4935516;29;20035;-77
2022/12/21 01:00:13;;;;;;;60.67;19.90;;;;;;;;;;4935181;29;20204;-78
2022/12/21 01:02:39;;;;;;;54.03;19.53;;;;;;;;;;4949663;29;20058;-78
2022/12/21 01:05:04;;;;;;;51.07;18.20;;;;;;;;;;4949412;29;20031;-77
2022/12/21 01:07:30;;;;;;;51.87;17.90;;;;;;;;;;4949481;28;20425;-77
2022/12/21 01:09:55;;;;;;;54.80;20.13;;;;;;;;;;4935231;29;20143;-77
2022/12/21 01:12:21;;;;;;;50.77;18.33;;;;;;;;;;4951382;29;20028;-76
2022/12/21 01:14:46;;;;;;;46.57;17.00;;;;;;;;;;4937124;29;20031;-77
2022/12/21 01:17:12;;;;;;;48.43;18.03;;;;;;;;;;4934470;29;20078;-78
2022/12/21 01:19:37;;;;;;;52.83;18.77;;;;;;;;;;4933306;29;20039;-78
2022/12/21 01:22:03;;;;;;;48.70;19.30;;;;;;;;;;4933748;29;20424;-78
2022/12/21 01:24:28;;;;;;;46.97;17.33;;;;;;;;;;4936255;29;20033;-77
2022/12/21 01:26:54;;;;;;;50.33;18.93;;;;;;;;;;4935988;29;20341;-77
2022/12/21 01:29:19;;;;;;;54.80;18.80;;;;;;;;;;4934743;29;20066;-77
2022/12/21 01:31:45;;;;;;;52.20;21.10;;;;;;;;;;4949170;28;20085;-78
2022/12/21 01:34:10;;;;;;;50.40;19.03;;;;;;;;;;4948846;29;20028;-77
2022/12/21 01:36:36;;;;;;;61.07;20.33;;;;;;;;;;4932910;29;20384;-78
2022/12/21 01:39:01;;;;;;;56.43;20.53;;;;;;;;;;4949267;29;20027;-79
2022/12/21 01:41:28;;;;;;;53.23;19.27;;;;;;;;;;4949674;29;20093;-80
2022/12/21 01:44:04;;;;;;;46.33;18.53;;;;;;;;;;4952019;29;20055;-79
2022/12/21 01:46:42;;;;;;;55.77;20.23;;;;;;;;;;4955092;29;20365;-79
2022/12/21 01:49:27;;;;;;;55.20;19.13;;;;;;;;;;4936348;29;20027;-79
2022/12/21 01:51:58;;;;;;;52.93;18.77;;;;;;;;;;4936801;29;20117;-79
2022/12/21 01:54:33;;;;;;;58.67;20.02;;;;;;;;;;4936663;29;20031;-79
2022/12/21 01:57:02;;;;;;;49.13;17.33;;;;;;;;;;4952961;29;20114;-79
2022/12/21 01:59:35;;;;;;;57.53;17.97;;;;;;;;;;4953509;29;20031;-79
2022/12/21 02:02:06;;;;;;;48.83;18.13;;;;;;;;;;4952449;29;20077;-78
2022/12/21 02:04:32;;;;;;;59.57;19.47;;;;;;;;;;4953814;29;20042;-78
2022/12/21 02:06:59;;;;;;;48.97;17.67;;;;;;;;;;4952885;29;20078;-78
2022/12/21 02:09:28;;;;;;;46.40;17.43;;;;;;;;;;4952820;28;20015;-78
2022/12/21 02:11:55;;;;;;;54.27;18.00;;;;;;;;;;4935733;29;20558;-78
2022/12/21 02:14:20;;;;;;;54.37;19.23;;;;;;;;;;4952462;29;20054;-78
2022/12/21 02:17:30;;;;;;;57.47;19.57;;;;;;;;;;4951356;29;20031;-78
2022/12/21 02:19:59;;;;;;;45.40;17.60;;;;;;;;;;4935973;29;20192;-81
2022/12/21 02:22:50;;;;;;;60.87;19.53;;;;;;;;;;4935078;29;20059;-82
2022/12/21 02:25:24;;;;;;;49.20;18.27;;;;;;;;;;4952122;28;20782;-81
2022/12/21 02:28:14;;;;;;;52.70;19.60;;;;;;;;;;4953510;29;20031;-81
2022/12/21 02:31:14;;;;;;;49.40;16.40;;;;;;;;;;4952552;29;20391;-82
2022/12/21 02:33:58;;;;;;;47.97;18.03;;;;;;;;;;4946846;28;20046;-82
2022/12/21 02:36:38;;;;;;;54.57;17.90;;;;;;;;;;4936202;29;20043;-81
2022/12/21 02:39:25;;;;;;;58.97;17.50;;;;;;;;;;4970858;28;20118;-82
2022/12/21 02:45:34;;;;;;;54.97;16.73;;;;;;;;;;4954583;29;20423;-82
2022/12/21 02:48:17;;;;;;;51.53;18.87;;;;;;;;;;4972470;28;20054;-82
2022/12/21 02:50:48;;;;;;;54.10;17.00;;;;;;;;;;4969718;28;20027;-82
2022/12/21 02:53:18;;;;;;;58.03;18.77;;;;;;;;;;4946964;28;20028;-80
2022/12/21 02:55:45;;;;;;;54.17;17.77;;;;;;;;;;4949684;29;20075;-82
2022/12/21 02:58:20;;;;;;;53.67;18.77;;;;;;;;;;4935710;29;20086;-83
2022/12/21 03:01:17;;;;;;;49.57;17.20;;;;;;;;;;4935283;29;20058;-82
2022/12/21 03:04:04;;;;;;;48.93;17.87;;;;;;;;;;4945133;29;20055;-81
2022/12/21 03:06:48;;;;;;;51.50;18.40;;;;;;;;;;4934775;29;20646;-84
2022/12/21 03:09:38;;;;;;;43.57;16.30;;;;;;;;;;4952468;29;20106;-82
2022/12/21 03:12:10;;;;;;;54.93;19.73;;;;;;;;;;4934684;29;20023;-79
2022/12/21 03:14:57;;;;;;;54.08;16.80;;;;;;;;;;4955070;29;20023;-81
2022/12/21 03:17:49;;;;;;;50.43;17.23;;;;;;;;;;4939948;29;20206;-82
2022/12/21 03:20:15;;;;;;;54.20;18.73;;;;;;;;;;4950289;29;20066;-78
2022/12/21 03:22:51;;;;;;;46.93;17.20;;;;;;;;;;4934392;29;20495;-79
2022/12/21 03:25:43;;;;;;;44.43;16.60;;;;;;;;;;4950636;29;20027;-78
2022/12/21 03:28:15;;;;;;;56.08;17.70;;;;;;;;;;4947239;29;20046;-78
2022/12/21 03:30:49;;;;;;;55.20;17.88;;;;;;;;;;4952253;29;20082;-79
2022/12/21 03:33:20;;;;;;;54.60;19.23;;;;;;;;;;4952371;29;20029;-79
2022/12/21 03:35:54;;;;;;;58.20;20.63;;;;;;;;;;4950623;29;20035;-79
2022/12/21 03:38:26;;;;;;;61.23;18.63;;;;;;;;;;4931223;29;20036;-78
2022/12/21 03:40:55;;;;;;;51.20;18.98;;;;;;;;;;4932246;29;20043;-79
2022/12/21 03:43:25;;;;;;;57.40;21.47;;;;;;;;;;4931843;29;20136;-80
2022/12/21 03:45:57;;;;;;;51.77;18.67;;;;;;;;;;4931165;29;20142;-78
2022/12/21 03:48:31;;;;;;;48.87;18.30;;;;;;;;;;4931682;29;20129;-78
2022/12/21 03:51:02;;;;;;;53.60;18.33;;;;;;;;;;4935578;29;20031;-79
2022/12/21 03:53:40;;;;;;;47.30;17.38;;;;;;;;;;4935378;29;20513;-78
2022/12/21 03:56:08;;;;;;;44.90;15.87;;;;;;;;;;4936535;29;20106;-77
2022/12/21 03:58:36;;;;;;;48.67;18.83;;;;;;;;;;4934460;29;20032;-78
2022/12/21 04:01:17;;;;;;;50.67;17.73;;;;;;;;;;4934286;29;20451;-78
2022/12/21 04:03:48;;;;;;;44.08;17.73;;;;;;;;;;4934360;29;20019;-79
2022/12/21 04:06:18;;;;;;;40.00;16.77;;;;;;;;;;4935523;29;20028;-78
2022/12/21 04:08:45;;;;;;;45.47;16.80;;;;;;;;;;4918583;29;20760;-77
2022/12/21 04:12:36;;;;;;;47.23;17.30;;;;;;;;;;4935615;29;20466;-77
2022/12/21 04:13:58;;;;;;;42.67;15.70;;;;;;;;;;4935658;29;20051;-78
2022/12/21 04:16:26;;;;;;;43.33;14.83;;;;;;;;;;4934477;29;20214;-77
2022/12/21 04:21:36;;;;;;;44.33;15.50;;;;;;;;;;4935916;29;20041;-78
2022/12/21 04:29:29;;;;;;;42.23;14.40;;;;;;;;;;4935453;29;20110;-78
2022/12/21 04:31:55;;;;;;;47.13;16.97;;;;;;;;;;4934077;29;20484;-78
2022/12/21 04:34:20;;;;;;;41.03;14.10;;;;;;;;;;4934186;29;20027;-78
2022/12/21 04:39:30;;;;;;;44.67;13.03;;;;;;;;;;4954356;29;20090;-78
2022/12/21 04:41:55;;;;;;;38.73;14.27;;;;;;;;;;4953061;29;20034;-78
2022/12/21 04:44:21;;;;;;;37.43;13.30;;;;;;;;;;4955558;28;20078;-76
2022/12/21 04:46:46;;;;;;;38.00;14.33;;;;;;;;;;4955322;28;20034;-77
2022/12/21 04:49:12;;;;;;;34.83;14.00;;;;;;;;;;4970322;28;20384;-77
2022/12/21 04:51:37;;;;;;;37.77;14.27;;;;;;;;;;4970509;28;20035;-76
2022/12/21 04:54:03;;;;;;;40.67;13.93;;;;;;;;;;4955255;28;20042;-77
2022/12/21 04:56:29;;;;;;;39.23;14.67;;;;;;;;;;4969756;28;20587;-77
2022/12/21 04:58:54;;;;;;;38.07;14.20;;;;;;;;;;4968213;28;20040;-76
2022/12/21 05:01:21;;;;;;;35.90;13.37;;;;;;;;;;4952408;29;20045;-78
2022/12/21 05:03:51;;;;;;;32.20;13.13;;;;;;;;;;4968760;28;20034;-76
2022/12/21 05:06:18;;;;;;;32.37;12.90;;;;;;;;;;4952799;28;20035;-76
2022/12/21 05:08:44;;;;;;;38.37;13.90;;;;;;;;;;4953025;28;20035;-78
2022/12/21 05:11:16;;;;;;;40.93;13.53;;;;;;;;;;4954027;28;20046;-77
2022/12/21 05:13:42;;;;;;;36.65;13.00;;;;;;;;;;4969241;28;20035;-77
2022/12/21 05:16:12;;;;;;;37.80;12.70;;;;;;;;;;4968848;28;20042;-77
2022/12/21 05:18:38;;;;;;;41.73;13.50;;;;;;;;;;4968370;28;20040;-77
2022/12/21 05:21:04;;;;;;;36.43;13.17;;;;;;;;;;4968538;28;20027;-77
2022/12/21 05:23:29;;;;;;;33.63;12.10;;;;;;;;;;4968581;28;20019;-77
2022/12/21 05:25:55;;;;;;;40.83;13.40;;;;;;;;;;4955341;28;20020;-77
2022/12/21 05:28:20;;;;;;;37.77;12.97;;;;;;;;;;4954709;28;20031;-77
2022/12/21 05:30:46;;;;;;;32.87;12.53;;;;;;;;;;4953207;29;20131;-77
2022/12/21 05:33:11;;;;;;;33.23;12.90;;;;;;;;;;4968312;28;20118;-78
2022/12/21 05:35:41;;;;;;;41.47;13.17;;;;;;;;;;4952562;29;20077;-77
2022/12/21 05:38:07;;;;;;;38.33;14.27;;;;;;;;;;4937849;29;20032;-77
2022/12/21 05:40:33;;;;;;;35.67;13.53;;;;;;;;;;4932587;29;20041;-77
2022/12/21 05:43:00;;;;;;;39.13;11.67;;;;;;;;;;4934193;29;20381;-77
2022/12/21 05:45:26;;;;;;;30.00;11.73;;;;;;;;;;4917333;29;20495;-78
2022/12/21 05:47:51;;;;;;;34.33;12.87;;;;;;;;;;4933073;29;20035;-78
2022/12/21 05:50:17;;;;;;;38.53;13.53;;;;;;;;;;4932874;29;20449;-77
2022/12/21 05:52:42;;;;;;;32.27;12.30;;;;;;;;;;4932289;29;20024;-78
2022/12/21 05:55:08;;;;;;;37.07;14.27;;;;;;;;;;4934004;29;20177;-77
2022/12/21 05:57:33;;;;;;;32.07;13.37;;;;;;;;;;4932886;29;20063;-77
2022/12/21 05:59:59;;;;;;;35.40;12.23;;;;;;;;;;4932375;29;20031;-77
2022/12/21 06:02:24;;;;;;;35.37;14.20;;;;;;;;;;4932058;29;20027;-77
2022/12/21 06:04:50;;;;;;;38.47;16.80;;;;;;;;;;4932484;29;20054;-77
2022/12/21 06:07:15;;;;;;;38.80;12.43;;;;;;;;;;4932365;29;20512;-77
2022/12/21 06:09:41;;;;;;;32.17;12.43;;;;;;;;;;4934810;29;20023;-81
2022/12/21 06:12:06;;;;;;;29.50;12.33;;;;;;;;;;4937579;29;20023;-80
2022/12/21 06:14:32;;;;;;;32.17;12.97;;;;;;;;;;4946951;29;20027;-82
2022/12/21 06:16:59;;;;;;;37.57;13.20;;;;;;;;;;4942682;29;20031;-81
2022/12/21 06:19:24;;;;;;;37.13;14.47;;;;;;;;;;4919483;29;20027;-81
2022/12/21 06:21:50;;;;;;;39.10;13.47;;;;;;;;;;4937976;29;20032;-81
2022/12/21 06:24:15;;;;;;;39.03;11.37;;;;;;;;;;4920867;29;20028;-80
2022/12/21 06:26:40;;;;;;;34.07;14.47;;;;;;;;;;4935746;29;20118;-80
2022/12/21 06:29:07;;;;;;;40.73;12.83;;;;;;;;;;4937731;28;20023;-78
2022/12/21 06:31:33;;;;;;;33.43;12.47;;;;;;;;;;4943419;28;20482;-80
2022/12/21 06:33:58;;;;;;;29.70;12.00;;;;;;;;;;4950478;28;20038;-81
2022/12/21 06:36:24;;;;;;;34.07;12.63;;;;;;;;;;4952378;29;20150;-80
2022/12/21 06:38:49;;;;;;;34.50;12.57;;;;;;;;;;4952318;28;20031;-78
2022/12/21 06:41:17;;;;;;;36.63;12.40;;;;;;;;;;4950135;29;20043;-80
2022/12/21 06:43:45;;;;;;;37.23;12.93;;;;;;;;;;4946882;28;20475;-79
2022/12/21 06:46:16;;;;;;;30.70;11.63;;;;;;;;;;4934280;29;20123;-81
2022/12/21 06:48:42;;;;;;;33.10;10.37;;;;;;;;;;4945481;29;20046;-81
2022/12/21 06:51:16;;;;;;;36.43;12.27;;;;;;;;;;4949535;28;20556;-81
2022/12/21 06:53:44;;;;;;;31.17;12.03;;;;;;;;;;4949426;29;20082;-81
2022/12/21 06:56:16;;;;;;;38.37;13.90;;;;;;;;;;4945270;28;20035;-80
2022/12/21 06:58:42;;;;;;;33.95;12.57;;;;;;;;;;4946718;29;20389;-78
2022/12/21 07:01:11;;;;;;;34.93;13.20;;;;;;;;;;4941847;28;20069;-79
2022/12/21 07:03:37;;;;;;;34.53;12.53;;;;;;;;;;4944771;28;20588;-81
2022/12/21 07:06:04;;;;;;;26.73;12.23;;;;;;;;;;4925538;29;20033;-80
2022/12/21 07:08:29;;;;;;;30.90;11.53;;;;;;;;;;4939049;29;20111;-78
2022/12/21 07:11:00;;;;;;;35.57;16.37;;;;;;;;;;4946637;29;20118;-78
2022/12/21 07:13:26;;;;;;;36.07;13.03;;;;;;;;;;4942259;28;20049;-79
2022/12/21 07:15:53;;;;;;;35.27;14.93;;;;;;;;;;4943345;28;20028;-80
2022/12/21 07:18:19;;;;;;;33.40;13.17;;;;;;;;;;4928449;29;20032;-80
2022/12/21 07:20:45;;;;;;;40.50;13.57;;;;;;;;;;4920601;29;20032;-79
2022/12/21 07:23:10;;;;;;;27.80;12.17;;;;;;;;;;4928711;29;20038;-78
2022/12/21 07:25:36;;;;;;;35.33;13.10;;;;;;;;;;4943632;28;20023;-78
2022/12/21 07:28:01;;;;;;;34.27;13.87;;;;;;;;;;4928299;29;20031;-79
2022/12/21 07:30:27;;;;;;;32.23;13.73;;;;;;;;;;4929459;29;20032;-80
2022/12/21 07:32:53;;;;;;;35.10;12.50;;;;;;;;;;4950722;28;20119;-80
2022/12/21 07:35:23;;;;;;;47.73;14.67;;;;;;;;;;4947991;29;20130;-78
2022/12/21 07:37:50;;;;;;;42.27;12.87;;;;;;;;;;4945322;28;21258;-79
2022/12/21 07:40:16;;;;;;;34.70;15.23;;;;;;;;;;4945211;28;20050;-79
2022/12/21 07:42:43;;;;;;;49.23;14.30;;;;;;;;;;4925231;29;20058;-79
2022/12/21 07:45:09;;;;;;;41.23;12.50;;;;;;;;;;4934573;29;20725;-78
2022/12/21 07:47:35;;;;;;;39.60;14.80;;;;;;;;;;4951413;28;20027;-79
2022/12/21 07:50:05;;;;;;;35.63;12.80;;;;;;;;;;4949656;28;20087;-77
2022/12/21 07:52:31;;;;;;;50.47;14.57;;;;;;;;;;4951753;28;20058;-76
2022/12/21 07:54:56;;;;;;;40.97;14.87;;;;;;;;;;4939042;28;20102;-78
2022/12/21 07:57:22;;;;;;;38.67;12.63;;;;;;;;;;4946634;28;20393;-78
2022/12/21 07:59:48;;;;;;;38.80;14.93;;;;;;;;;;4948381;28;20731;-79
2022/12/21 08:02:13;;;;;;;43.67;15.33;;;;;;;;;;4950765;29;20047;-79
2022/12/21 08:04:39;;;;;;;32.57;13.77;;;;;;;;;;4931539;29;20480;-79
2022/12/21 08:07:05;;;;;;;47.07;14.17;;;;;;;;;;4951179;29;20118;-79
2022/12/21 08:09:32;;;;;;;39.77;13.77;;;;;;;;;;4960420;28;20032;-79
2022/12/21 08:11:57;;;;;;;45.03;14.60;;;;;;;;;;4946701;29;20365;-80
2022/12/21 08:14:23;;;;;;;37.83;13.37;;;;;;;;;;4941393;29;20027;-78
2022/12/21 08:16:49;;;;;;;39.63;14.47;;;;;;;;;;4945711;28;20035;-77
2022/12/21 08:19:14;;;;;;;43.50;15.40;;;;;;;;;;4949116;28;20043;-77
2022/12/21 08:21:40;;;;;;;37.67;14.80;;;;;;;;;;4947643;28;20058;-79
2022/12/21 08:24:05;;;;;;;45.97;13.53;;;;;;;;;;4943399;28;20034;-79
2022/12/21 08:26:31;;;;;;;40.33;13.97;;;;;;;;;;4944876;28;20042;-79
2022/12/21 08:28:57;;;;;;;43.00;14.93;;;;;;;;;;4945083;29;20086;-78
2022/12/21 08:31:23;;;;;;;35.73;13.47;;;;;;;;;;4947266;29;20047;-80
2022/12/21 08:33:49;;;;;;;46.57;14.53;;;;;;;;;;4933463;29;20634;-77
2022/12/21 08:36:18;;;;;;;32.73;13.47;;;;;;;;;;4956318;29;20047;-78
2022/12/21 08:38:46;;;;;;;37.73;13.50;;;;;;;;;;4947591;29;20115;-80
2022/12/21 08:41:12;;;;;;;44.13;14.23;;;;;;;;;;4950390;29;20126;-80
2022/12/21 08:43:38;;;;;;;54.07;16.97;;;;;;;;;;4960371;29;20218;-80
2022/12/21 08:46:09;;;;;;;37.67;14.27;;;;;;;;;;4961507;29;20146;-81
2022/12/21 08:48:35;;;;;;;34.17;13.70;;;;;;;;;;4946341;29;20035;-81
2022/12/21 08:51:01;;;;;;;35.67;12.53;;;;;;;;;;4957216;29;20035;-80
2022/12/21 08:53:27;;;;;;;39.43;14.73;;;;;;;;;;4950782;29;20035;-80
2022/12/21 08:55:54;;;;;;;36.77;14.13;;;;;;;;;;4952354;29;20027;-79
2022/12/21 08:58:20;;;;;;;46.40;16.53;;;;;;;;;;4929832;28;20047;-80
2022/12/21 09:00:51;;;;;;;39.33;14.70;;;;;;;;;;4950890;28;20082;-79
2022/12/21 09:03:16;;;;;;;39.27;14.67;;;;;;;;;;4949958;29;20384;-79
2022/12/21 09:05:42;;;;;;;38.93;16.00;;;;;;;;;;4949318;28;20043;-80
2022/12/21 09:08:08;;;;;;;37.17;13.20;;;;;;;;;;4945811;28;20396;-78
2022/12/21 09:10:34;;;;;;;37.70;15.30;;;;;;;;;;4950207;28;20043;-79
2022/12/21 09:13:00;;;;;;;40.30;14.67;;;;;;;;;;4954457;28;20031;-79
2022/12/21 09:15:26;;;;;;;41.83;16.27;;;;;;;;;;4955496;29;20062;-80
2022/12/21 09:17:51;;;;;;;39.87;16.20;;;;;;;;;;4953528;28;20046;-79
2022/12/21 09:20:17;;;;;;;47.13;17.20;;;;;;;;;;4957610;29;20058;-80
2022/12/21 09:22:42;;;;;;;41.27;16.23;;;;;;;;;;4954407;29;20110;-80
2022/12/21 09:25:08;;;;;;;49.87;16.63;;;;;;;;;;4948617;28;20038;-80
2022/12/21 09:27:34;;;;;;;40.73;16.60;;;;;;;;;;4953706;28;20034;-80
2022/12/21 09:30:00;;;;;;;42.83;15.63;;;;;;;;;;4948420;28;20023;-78
2022/12/21 09:32:26;;;;;;;48.63;15.37;;;;;;;;;;4952400;29;20043;-79
2022/12/21 09:34:52;;;;;;;40.73;15.30;;;;;;;;;;4953811;28;20023;-80
2022/12/21 09:37:18;;;;;;;36.20;14.73;;;;;;;;;;4959170;28;20035;-81
2022/12/21 09:39:44;;;;;;;43.10;16.20;;;;;;;;;;4951839;28;20101;-79
2022/12/21 09:42:19;;;;;;;45.80;15.60;;;;;;;;;;4949498;28;20043;-81
2022/12/21 09:45:09;;;;;;;47.57;15.93;;;;;;;;;;4947872;29;20069;-79
2022/12/21 09:48:12;;;;;;;40.83;15.33;;;;;;;;;;4947871;28;20031;-79
2022/12/21 09:50:53;;;;;;;38.40;14.83;;;;;;;;;;4871521;29;20043;-80
2022/12/21 09:53:33;;;;;;;36.03;14.53;;;;;;;;;;4940700;29;20053;-80
2022/12/21 09:56:00;;;;;;;34.37;14.67;;;;;;;;;;4943342;28;20139;-79
2022/12/21 09:58:44;;;;;;;37.30;14.90;;;;;;;;;;4968085;28;20038;-78
2022/12/21 10:01:28;;;;;;;38.30;13.77;;;;;;;;;;4946079;29;20038;-79
2022/12/21 10:04:03;;;;;;;36.83;14.40;;;;;;;;;;4930515;29;20041;-79
2022/12/21 10:06:50;;;;;;;40.47;14.80;;;;;;;;;;4933952;29;20046;-79
2022/12/21 10:09:34;;;;;;;32.90;15.87;;;;;;;;;;4946817;29;20038;-80
2022/12/21 10:11:59;;;;;;;35.33;14.77;;;;;;;;;;4932093;29;20035;-80
2022/12/21 10:14:25;;;;;;;41.03;15.43;;;;;;;;;;4942946;29;20027;-79
2022/12/21 10:17:21;;;;;;;39.83;14.87;;;;;;;;;;4934627;29;20027;-79
2022/12/21 10:20:46;;;;;;;37.13;15.07;;;;;;;;;;4950405;29;20038;-78
2022/12/21 10:23:32;;;;;;;37.53;14.57;;;;;;;;;;4873662;29;20085;-82
2022/12/21 10:26:02;;;;;;;35.40;13.17;;;;;;;;;;4939811;28;20051;-80
2022/12/21 10:29:05;;;;;;;36.63;13.60;;;;;;;;;;4955559;28;20545;-82
2022/12/21 10:31:43;;;;;;;40.10;16.60;;;;;;;;;;4932688;29;20039;-80
2022/12/21 10:34:43;;;;;;;42.20;15.47;;;;;;;;;;4948958;29;20031;-80
2022/12/21 10:37:14;;;;;;;41.53;16.07;;;;;;;;;;4917982;29;20058;-80
2022/12/21 10:39:40;;;;;;;36.55;14.90;;;;;;;;;;4925316;29;20123;-80
2022/12/21 10:42:24;;;;;;;45.67;15.57;;;;;;;;;;4949154;29;20174;-79
2022/12/21 10:44:51;;;;;;;38.93;14.63;;;;;;;;;;4947472;29;20031;-80
2022/12/21 10:47:20;;;;;;;46.77;15.87;;;;;;;;;;4945778;29;20081;-80
2022/12/21 10:50:04;;;;;;;39.53;15.70;;;;;;;;;;4951016;28;20638;-82
2022/12/21 10:52:33;;;;;;;45.83;17.30;;;;;;;;;;4935829;29;20038;-81
2022/12/21 10:54:59;;;;;;;38.10;16.27;;;;;;;;;;4930625;29;20042;-79
2022/12/21 10:57:28;;;;;;;48.33;16.10;;;;;;;;;;4931793;29;20492;-80
2022/12/21 10:59:54;;;;;;;33.53;14.80;;;;;;;;;;4946844;28;20113;-78
2022/12/21 11:02:50;;;;;;;41.00;14.80;;;;;;;;;;4948316;29;20141;-80
2022/12/21 11:05:34;;;;;;;42.27;16.70;;;;;;;;;;4931818;29;20039;-80
2022/12/21 11:08:09;;;;;;;39.90;15.60;;;;;;;;;;4943962;28;20031;-80
2022/12/21 11:10:35;;;;;;;42.27;15.60;;;;;;;;;;4949729;28;20090;-80
2022/12/21 11:13:04;;;;;;;43.10;16.47;;;;;;;;;;4949967;29;20039;-81
2022/12/21 11:15:30;;;;;;;40.17;15.67;;;;;;;;;;4944490;29;20035;-80
2022/12/21 11:17:55;;;;;;;43.17;15.53;;;;;;;;;;4946893;29;20038;-83
2022/12/21 11:20:21;;;;;;;45.43;16.83;;;;;;;;;;4950102;29;20114;-80
2022/12/21 11:22:50;;;;;;;44.37;18.03;;;;;;;;;;4932921;29;20067;-81
2022/12/21 11:25:26;;;;;;;52.13;18.77;;;;;;;;;;4929088;29;20448;-81
2022/12/21 11:27:57;;;;;;;38.33;14.50;;;;;;;;;;4953395;29;20058;-81
2022/12/21 11:30:24;;;;;;;37.83;15.65;;;;;;;;;;4952591;28;20492;-81
2022/12/21 11:32:53;;;;;;;44.80;15.67;;;;;;;;;;4940639;28;20058;-79
2022/12/21 11:35:25;;;;;;;41.93;15.73;;;;;;;;;;4935224;28;20135;-79
2022/12/21 11:38:03;;;;;;;39.90;16.38;;;;;;;;;;4961285;28;20038;-81
2022/12/21 11:40:29;;;;;;;39.93;17.93;;;;;;;;;;4948092;29;20096;-78
2022/12/21 11:42:58;;;;;;;48.60;16.97;;;;;;;;;;4936403;29;20063;-81
2022/12/21 11:45:46;;;;;;;40.80;17.30;;;;;;;;;;4948399;29;20171;-81
2022/12/21 11:48:21;;;;;;;37.83;17.63;;;;;;;;;;4928939;29;20105;-81
2022/12/21 11:51:06;;;;;;;40.57;15.33;;;;;;;;;;4941246;29;20038;-81
2022/12/21 11:53:56;;;;;;;38.57;16.23;;;;;;;;;;4930234;29;20487;-79
2022/12/21 11:56:34;;;;;;;44.13;15.33;;;;;;;;;;4940523;28;20050;-80
2022/12/21 11:59:14;;;;;;;38.47;15.07;;;;;;;;;;4939517;29;20138;-80
2022/12/21 12:02:17;;;;;;;43.00;17.07;;;;;;;;;;4932983;29;20510;-79
2022/12/21 12:05:20;;;;;;;49.80;17.13;;;;;;;;;;4926089;29;20031;-81
2022/12/21 12:08:04;;;;;;;;;;;;;;;;;;4954897;28;20118;-80
2022/12/21 12:10:43;;;;;;;41.57;14.53;;;;;;;;;;4925299;29;20009;-80
2022/12/21 12:13:33;;;;;;;47.80;16.10;;;;;;;;;;4953444;29;20038;-80
2022/12/21 12:16:16;;;;;;;38.77;15.80;;;;;;;;;;4934788;29;20031;-80
2022/12/21 12:19:12;;;;;;;41.10;16.87;;;;;;;;;;4947071;28;20070;-79
2022/12/21 12:21:56;;;;;;;37.60;16.40;;;;;;;;;;4953004;28;20118;-80
2022/12/21 12:24:46;;;;;;;46.43;16.83;;;;;;;;;;4935201;29;20077;-79
2022/12/21 12:27:29;;;;;;;52.27;18.80;;;;;;;;;;4947148;28;20031;-80
2022/12/21 12:30:20;;;;;;;49.07;16.93;;;;;;;;;;4952426;29;20035;-79
2022/12/21 12:33:27;;;;;;;48.10;19.50;;;;;;;;;;4937016;29;20496;-78
2022/12/21 12:36:17;;;;;;;45.73;16.13;;;;;;;;;;4908049;29;20638;-79
2022/12/21 12:38:45;;;;;;;44.17;16.20;;;;;;;;;;4948891;29;20054;-80
2022/12/21 12:41:35;;;;;;;42.33;16.50;;;;;;;;;;4951960;28;20030;-79
2022/12/21 12:44:46;;;;;;;39.10;17.77;;;;;;;;;;4939851;29;20043;-80
2022/12/21 12:47:48;;;;;;;42.83;16.60;;;;;;;;;;4931229;29;20059;-80
2022/12/21 12:50:23;;;;;;;39.22;16.50;;;;;;;;;;4943876;28;20103;-80
2022/12/21 12:53:16;;;;;;;59.97;23.90;;;;;;;;;;4954157;28;20035;-80
2022/12/21 12:56:04;;;;;;;45.43;16.37;;;;;;;;;;4945388;29;20034;-81
2022/12/21 12:58:47;;;;;;;44.53;16.70;;;;;;;;;;4945388;28;20055;-81
2022/12/21 13:01:15;;;;;;;40.57;15.10;;;;;;;;;;4947449;29;20119;-80
2022/12/21 13:04:14;;;;;;;37.63;15.70;;;;;;;;;;4952002;29;20023;-82
2022/12/21 13:07:11;;;;;;;36.63;15.37;;;;;;;;;;4925693;28;20062;-80
2022/12/21 13:09:55;;;;;;;44.77;16.40;;;;;;;;;;4931331;29;20113;-79
2022/12/21 13:12:35;;;;;;;44.80;17.27;;;;;;;;;;4949634;29;20024;-78
2022/12/21 13:15:19;;;;;;;52.20;17.63;;;;;;;;;;4950758;28;20036;-81
2022/12/21 13:18:22;;;;;;;45.23;16.60;;;;;;;;;;4943161;28;20031;-81
2022/12/21 13:20:53;;;;;;;46.43;18.97;;;;;;;;;;4952967;28;20126;-80
2022/12/21 13:23:44;;;;;;;63.97;18.70;;;;;;;;;;4948397;29;20043;-83
2022/12/21 13:26:14;;;;;;;44.92;17.52;;;;;;;;;;4929833;29;20135;-79
2022/12/21 13:28:59;;;;;;;43.07;15.17;;;;;;;;;;4950418;29;20043;-80
2022/12/21 13:31:35;;;;;;;44.07;17.47;;;;;;;;;;4943100;29;20206;-78
2022/12/21 13:34:04;;;;;;;41.23;15.77;;;;;;;;;;4947476;29;20031;-78
2022/12/21 13:36:36;;;;;;;43.67;18.27;;;;;;;;;;4944197;28;20082;-79
2022/12/21 13:39:05;;;;;;;42.73;17.63;;;;;;;;;;4953067;28;20031;-79
2022/12/21 13:41:46;;;;;;;50.83;17.83;;;;;;;;;;4942543;29;20078;-80
2022/12/21 13:44:20;;;;;;;48.10;18.10;;;;;;;;;;4933706;29;20082;-79
2022/12/21 13:46:47;;;;;;;41.07;16.67;;;;;;;;;;4930282;29;20040;-79
2022/12/21 13:49:21;;;;;;;47.17;18.77;;;;;;;;;;4949058;29;20086;-79
2022/12/21 13:51:51;;;;;;;42.50;17.77;;;;;;;;;;4941422;28;20027;-78
2022/12/21 13:54:28;;;;;;;43.80;17.43;;;;;;;;;;4953575;28;20133;-79
2022/12/21 13:57:15;;;;;;;45.73;17.00;;;;;;;;;;4933820;28;20039;-79
2022/12/21 14:00:20;;;;;;;44.37;18.00;;;;;;;;;;4933545;29;20055;-80
2022/12/21 14:03:12;;;;;;;41.67;17.37;;;;;;;;;;4850262;29;20077;-79
2022/12/21 14:06:00;;;;;;;40.70;17.20;;;;;;;;;;4928835;29;20062;-78
2022/12/21 14:08:37;;;;;;;49.57;18.37;;;;;;;;;;4931618;29;20043;-81
2022/12/21 14:12:17;;;;;;;41.33;18.07;;;;;;;;;;4944835;29;20027;-82
2022/12/21 14:14:57;;;;;;;40.23;17.13;;;;;;;;;;4878905;29;20041;-78
2022/12/21 14:17:40;;;;;;;47.30;18.20;;;;;;;;;;4863813;29;20237;-80
2022/12/21 14:20:19;;;;;;;47.93;19.53;;;;;;;;;;4927697;29;20150;-79
2022/12/21 14:22:45;;;;;;;44.60;16.67;;;;;;;;;;4943607;28;20789;-79
2022/12/21 14:25:29;;;;;;;40.00;16.27;;;;;;;;;;4942702;28;20059;-80
2022/12/21 14:28:13;;;;;;;47.70;18.33;;;;;;;;;;4934539;29;20134;-79
2022/12/21 14:30:56;;;;;;;38.10;17.77;;;;;;;;;;4950671;29;20026;-79
2022/12/21 14:33:27;;;;;;;39.40;16.17;;;;;;;;;;4951303;28;20031;-80
2022/12/21 14:36:14;;;;;;;44.42;18.58;;;;;;;;;;4950616;29;20026;-79
2022/12/21 14:38:40;;;;;;;39.10;16.23;;;;;;;;;;4934733;29;20559;-80
2022/12/21 14:41:12;;;;;;;48.17;18.13;;;;;;;;;;4949592;29;20039;-79
2022/12/21 14:44:09;;;;;;;44.60;17.38;;;;;;;;;;4926420;29;20059;-79
2022/12/21 14:46:37;;;;;;;42.80;16.50;;;;;;;;;;4930530;29;20079;-79
2022/12/21 14:49:25;;;;;;;40.33;16.53;;;;;;;;;;4933433;29;20477;-79
2022/12/21 14:51:54;;;;;;;46.10;16.07;;;;;;;;;;4932599;29;20039;-79
2022/12/21 14:54:25;;;;;;;39.70;16.93;;;;;;;;;;4947098;29;20028;-78
2022/12/21 14:57:09;;;;;;;46.05;16.70;;;;;;;;;;4949868;28;20073;-79
2022/12/21 14:59:39;;;;;;;56.13;22.10;;;;;;;;;;4923089;29;20104;-80
2022/12/21 15:02:24;;;;;;;39.97;17.07;;;;;;;;;;4930031;29;20110;-79
2022/12/21 15:04:55;;;;;;;44.30;18.13;;;;;;;;;;4949666;29;20027;-78
2022/12/21 15:07:25;;;;;;;43.67;18.30;;;;;;;;;;4945634;28;20365;-78